sensor_id;sensor_type;location;lat;lon;timestamp;temperature;humidity
23751;DHT22;12055;52.098;13.176;2022-08-19T00:01:09;20.60;99.90
23751;DHT22;12055;52.098;13.176;2022-08-19T00:03:35;20.60;99.90
23751;DHT22;12055;52.098;13.176;2022-08-19T00:06:00;20.60;99.90
23751;DHT22;12055;52.098;13.176;2022-08-19T00:08:26;20.60;99.90
23751;DHT22;12055;52.098;13.176;2022-08-19T00:10:51;20.70;99.90
23751;DHT22;12055;52.098;13.176;2022-08-19T00:13:17;20.70;99.90
23751;DHT22;12055;52.098;13.176;2022-08-19T00:15:43;20.70;99.90
23751;DHT22;12055;52.098;13.176;2022-08-19T00:18:10;20.70;99.90
23751;DHT22;12055;52.098;13.176;2022-08-19T00:20:36;20.70;99.90
23751;DHT22;12055;52.098;13.176;2022-08-19T00:23:03;20.70;99.90
23751;DHT22;12055;52.098;13.176;2022-08-19T00:25:29;20.60;99.90
23751;DHT22;12055;52.098;13.176;2022-08-19T00:27:54;20.60;99.90
23751;DHT22;12055;52.098;13.176;2022-08-19T00:30:19;20.70;99.90
23751;DHT22;12055;52.098;13.176;2022-08-19T00:32:45;20.70;99.90
23751;DHT22;12055;52.098;13.176;2022-08-19T00:35:11;20.70;99.90
23751;DHT22;12055;52.098;13.176;2022-08-19T00:37:37;20.70;99.90
23751;DHT22;12055;52.098;13.176;2022-08-19T00:40:05;20.70;99.90
23751;DHT22;12055;52.098;13.176;2022-08-19T00:42:31;20.60;99.90
23751;DHT22;12055;52.098;13.176;2022-08-19T00:44:57;20.60;99.90
23751;DHT22;12055;52.098;13.176;2022-08-19T00:47:22;20.60;99.90
23751;DHT22;12055;52.098;13.176;2022-08-19T00:49:55;20.60;99.90
23751;DHT22;12055;52.098;13.176;2022-08-19T00:52:32;20.60;99.90
23751;DHT22;12055;52.098;13.176;2022-08-19T00:54:59;20.60;99.90
23751;DHT22;12055;52.098;13.176;2022-08-19T00:57:33;20.50;99.90
23751;DHT22;12055;52.098;13.176;2022-08-19T01:00:00;20.50;99.90
23751;DHT22;12055;52.098;13.176;2022-08-19T01:02:27;20.50;99.90
23751;DHT22;12055;52.098;13.176;2022-08-19T01:04:53;20.40;99.90
23751;DHT22;12055;52.098;13.176;2022-08-19T01:07:19;20.40;99.90
23751;DHT22;12055;52.098;13.176;2022-08-19T01:09:44;20.40;99.90
23751;DHT22;12055;52.098;13.176;2022-08-19T01:12:10;20.40;99.90
23751;DHT22;12055;52.098;13.176;2022-08-19T01:14:39;20.40;99.90
23751;DHT22;12055;52.098;13.176;2022-08-19T01:17:06;20.40;99.90
23751;DHT22;12055;52.098;13.176;2022-08-19T01:19:36;20.40;99.90
23751;DHT22;12055;52.098;13.176;2022-08-19T01:25:05;20.40;99.90
23751;DHT22;12055;52.098;13.176;2022-08-19T01:27:39;20.30;99.90
23751;DHT22;12055;52.098;13.176;2022-08-19T01:30:05;20.30;99.90
23751;DHT22;12055;52.098;13.176;2022-08-19T01:32:31;20.30;99.90
23751;DHT22;12055;52.098;13.176;2022-08-19T01:34:57;20.20;99.90
23751;DHT22;12055;52.098;13.176;2022-08-19T01:37:23;20.20;99.90
23751;DHT22;12055;52.098;13.176;2022-08-19T01:39:49;20.20;99.90
23751;DHT22;12055;52.098;13.176;2022-08-19T01:42:14;20.30;99.90
23751;DHT22;12055;52.098;13.176;2022-08-19T01:44:40;20.20;99.90
23751;DHT22;12055;52.098;13.176;2022-08-19T01:47:08;20.20;99.90
23751;DHT22;12055;52.098;13.176;2022-08-19T01:49:37;20.20;99.90
23751;DHT22;12055;52.098;13.176;2022-08-19T01:52:04;20.20;99.90
23751;DHT22;12055;52.098;13.176;2022-08-19T01:54:30;20.20;99.90
23751;DHT22;12055;52.098;13.176;2022-08-19T01:57:07;20.20;99.90
23751;DHT22;12055;52.098;13.176;2022-08-19T01:59:34;20.20;99.90
23751;DHT22;12055;52.098;13.176;2022-08-19T02:02:02;20.30;99.90
23751;DHT22;12055;52.098;13.176;2022-08-19T02:04:28;20.20;99.90
23751;DHT22;12055;52.098;13.176;2022-08-19T02:06:54;20.20;99.90
23751;DHT22;12055;52.098;13.176;2022-08-19T02:09:19;20.30;99.90
23751;DHT22;12055;52.098;13.176;2022-08-19T02:11:45;20.30;99.90
23751;DHT22;12055;52.098;13.176;2022-08-19T02:14:10;20.30;99.90
23751;DHT22;12055;52.098;13.176;2022-08-19T02:16:37;20.40;99.90
23751;DHT22;12055;52.098;13.176;2022-08-19T02:19:03;20.30;99.90
23751;DHT22;12055;52.098;13.176;2022-08-19T02:21:29;20.40;99.90
23751;DHT22;12055;52.098;13.176;2022-08-19T02:23:55;20.40;99.90
23751;DHT22;12055;52.098;13.176;2022-08-19T02:26:21;20.40;99.90
23751;DHT22;12055;52.098;13.176;2022-08-19T02:28:47;20.40;99.90
23751;DHT22;12055;52.098;13.176;2022-08-19T02:31:16;20.30;99.90
23751;DHT22;12055;52.098;13.176;2022-08-19T02:33:42;20.20;99.90
23751;DHT22;12055;52.098;13.176;2022-08-19T02:36:08;20.20;99.90
23751;DHT22;12055;52.098;13.176;2022-08-19T02:38:35;20.20;99.90
23751;DHT22;12055;52.098;13.176;2022-08-19T02:41:15;20.20;99.90
23751;DHT22;12055;52.098;13.176;2022-08-19T02:43:41;20.20;99.90
23751;DHT22;12055;52.098;13.176;2022-08-19T02:46:22;20.10;99.90
23751;DHT22;12055;52.098;13.176;2022-08-19T02:48:53;20.10;99.90
23751;DHT22;12055;52.098;13.176;2022-08-19T02:51:21;20.10;99.90
23751;DHT22;12055;52.098;13.176;2022-08-19T02:53:47;20.10;99.90
23751;DHT22;12055;52.098;13.176;2022-08-19T02:56:13;20.10;99.90
23751;DHT22;12055;52.098;13.176;2022-08-19T02:58:38;20.10;99.90
23751;DHT22;12055;52.098;13.176;2022-08-19T03:01:04;20.10;99.90
23751;DHT22;12055;52.098;13.176;2022-08-19T03:03:30;20.10;99.90
23751;DHT22;12055;52.098;13.176;2022-08-19T03:06:12;20.10;99.90
23751;DHT22;12055;52.098;13.176;2022-08-19T03:08:41;20.10;99.90
23751;DHT22;12055;52.098;13.176;2022-08-19T03:11:11;20.10;99.90
23751;DHT22;12055;52.098;13.176;2022-08-19T03:13:37;20.00;99.90
23751;DHT22;12055;52.098;13.176;2022-08-19T03:16:04;20.00;99.90
23751;DHT22;12055;52.098;13.176;2022-08-19T03:18:29;20.00;99.90
23751;DHT22;12055;52.098;13.176;2022-08-19T03:20:55;20.00;99.90
23751;DHT22;12055;52.098;13.176;2022-08-19T03:23:22;20.00;99.90
23751;DHT22;12055;52.098;13.176;2022-08-19T03:25:50;19.90;99.90
23751;DHT22;12055;52.098;13.176;2022-08-19T03:28:16;19.90;99.90
23751;DHT22;12055;52.098;13.176;2022-08-19T03:30:53;19.90;99.90
23751;DHT22;12055;52.098;13.176;2022-08-19T03:33:21;19.90;99.90
23751;DHT22;12055;52.098;13.176;2022-08-19T03:35:46;19.90;99.90
23751;DHT22;12055;52.098;13.176;2022-08-19T03:38:12;19.90;99.90
23751;DHT22;12055;52.098;13.176;2022-08-19T03:40:38;19.90;99.90
23751;DHT22;12055;52.098;13.176;2022-08-19T03:43:03;19.90;99.90
23751;DHT22;12055;52.098;13.176;2022-08-19T03:45:29;19.90;99.90
23751;DHT22;12055;52.098;13.176;2022-08-19T03:47:55;19.90;99.90
23751;DHT22;12055;52.098;13.176;2022-08-19T03:50:20;19.90;99.90
23751;DHT22;12055;52.098;13.176;2022-08-19T03:52:50;19.90;99.90
23751;DHT22;12055;52.098;13.176;2022-08-19T03:55:16;19.90;99.90
23751;DHT22;12055;52.098;13.176;2022-08-19T03:57:42;20.00;99.90
23751;DHT22;12055;52.098;13.176;2022-08-19T04:00:08;20.00;99.90
23751;DHT22;12055;52.098;13.176;2022-08-19T04:02:34;20.00;99.90
23751;DHT22;12055;52.098;13.176;2022-08-19T04:05:00;20.00;99.90
23751;DHT22;12055;52.098;13.176;2022-08-19T04:07:25;20.00;99.90
23751;DHT22;12055;52.098;13.176;2022-08-19T04:09:51;20.00;99.90
23751;DHT22;12055;52.098;13.176;2022-08-19T04:12:17;19.90;99.90
23751;DHT22;12055;52.098;13.176;2022-08-19T04:14:44;20.00;99.90
23751;DHT22;12055;52.098;13.176;2022-08-19T04:17:09;20.00;99.90
23751;DHT22;12055;52.098;13.176;2022-08-19T04:19:36;20.00;99.90
23751;DHT22;12055;52.098;13.176;2022-08-19T04:22:03;20.00;99.90
23751;DHT22;12055;52.098;13.176;2022-08-19T04:24:29;20.00;99.90
23751;DHT22;12055;52.098;13.176;2022-08-19T04:26:54;20.10;99.90
23751;DHT22;12055;52.098;13.176;2022-08-19T04:29:23;20.10;99.90
23751;DHT22;12055;52.098;13.176;2022-08-19T04:31:50;20.10;99.90
23751;DHT22;12055;52.098;13.176;2022-08-19T04:34:18;20.10;99.90
23751;DHT22;12055;52.098;13.176;2022-08-19T04:36:47;20.10;99.90
23751;DHT22;12055;52.098;13.176;2022-08-19T04:39:16;20.10;99.90
23751;DHT22;12055;52.098;13.176;2022-08-19T04:41:43;20.10;99.90
23751;DHT22;12055;52.098;13.176;2022-08-19T04:44:27;20.10;99.90
23751;DHT22;12055;52.098;13.176;2022-08-19T04:46:55;20.20;99.90
23751;DHT22;12055;52.098;13.176;2022-08-19T04:49:22;20.20;99.90
23751;DHT22;12055;52.098;13.176;2022-08-19T04:51:48;20.30;99.90
23751;DHT22;12055;52.098;13.176;2022-08-19T04:54:17;20.30;99.90
23751;DHT22;12055;52.098;13.176;2022-08-19T04:56:43;20.40;99.90
23751;DHT22;12055;52.098;13.176;2022-08-19T04:59:09;20.40;99.90
23751;DHT22;12055;52.098;13.176;2022-08-19T05:01:36;20.50;99.90
23751;DHT22;12055;52.098;13.176;2022-08-19T05:04:03;20.70;99.90
23751;DHT22;12055;52.098;13.176;2022-08-19T05:06:30;20.80;99.90
23751;DHT22;12055;52.098;13.176;2022-08-19T05:08:58;20.90;99.90
23751;DHT22;12055;52.098;13.176;2022-08-19T05:11:27;21.00;99.90
23751;DHT22;12055;52.098;13.176;2022-08-19T05:13:54;21.20;99.90
23751;DHT22;12055;52.098;13.176;2022-08-19T05:16:21;21.30;99.90
23751;DHT22;12055;52.098;13.176;2022-08-19T05:18:47;21.40;99.90
23751;DHT22;12055;52.098;13.176;2022-08-19T05:21:32;21.50;99.90
23751;DHT22;12055;52.098;13.176;2022-08-19T05:24:19;21.50;99.90
23751;DHT22;12055;52.098;13.176;2022-08-19T05:26:47;21.50;99.90
23751;DHT22;12055;52.098;13.176;2022-08-19T05:29:16;21.40;99.90
23751;DHT22;12055;52.098;13.176;2022-08-19T05:31:42;21.40;99.90
23751;DHT22;12055;52.098;13.176;2022-08-19T05:34:08;21.30;99.90
23751;DHT22;12055;52.098;13.176;2022-08-19T05:36:37;21.30;99.90
23751;DHT22;12055;52.098;13.176;2022-08-19T05:39:06;21.30;99.90
23751;DHT22;12055;52.098;13.176;2022-08-19T05:41:32;21.30;99.90
23751;DHT22;12055;52.098;13.176;2022-08-19T05:44:01;21.40;99.90
23751;DHT22;12055;52.098;13.176;2022-08-19T05:46:27;21.50;99.90
23751;DHT22;12055;52.098;13.176;2022-08-19T05:48:52;21.60;99.90
23751;DHT22;12055;52.098;13.176;2022-08-19T05:51:18;21.70;99.90
23751;DHT22;12055;52.098;13.176;2022-08-19T05:53:44;21.80;99.90
23751;DHT22;12055;52.098;13.176;2022-08-19T05:56:15;22.00;99.90
23751;DHT22;12055;52.098;13.176;2022-08-19T05:58:42;22.20;99.90
23751;DHT22;12055;52.098;13.176;2022-08-19T06:01:15;22.40;99.90
23751;DHT22;12055;52.098;13.176;2022-08-19T06:03:41;22.60;99.90
23751;DHT22;12055;52.098;13.176;2022-08-19T06:06:08;22.70;99.90
23751;DHT22;12055;52.098;13.176;2022-08-19T06:08:35;22.80;99.90
23751;DHT22;12055;52.098;13.176;2022-08-19T06:11:21;22.70;99.90
23751;DHT22;12055;52.098;13.176;2022-08-19T06:13:49;22.60;99.90
23751;DHT22;12055;52.098;13.176;2022-08-19T06:16:17;22.60;99.90
23751;DHT22;12055;52.098;13.176;2022-08-19T06:18:53;22.50;99.90
23751;DHT22;12055;52.098;13.176;2022-08-19T06:21:21;22.60;99.90
23751;DHT22;12055;52.098;13.176;2022-08-19T06:23:47;22.60;99.90
23751;DHT22;12055;52.098;13.176;2022-08-19T06:26:18;22.80;99.90
23751;DHT22;12055;52.098;13.176;2022-08-19T06:28:44;23.00;99.90
23751;DHT22;12055;52.098;13.176;2022-08-19T06:31:20;23.10;99.90
23751;DHT22;12055;52.098;13.176;2022-08-19T06:33:48;23.10;99.90
23751;DHT22;12055;52.098;13.176;2022-08-19T06:36:24;23.30;99.90
23751;DHT22;12055;52.098;13.176;2022-08-19T06:38:55;23.40;99.90
23751;DHT22;12055;52.098;13.176;2022-08-19T06:41:22;23.50;99.90
23751;DHT22;12055;52.098;13.176;2022-08-19T06:43:48;23.60;99.90
23751;DHT22;12055;52.098;13.176;2022-08-19T06:46:15;23.60;99.90
23751;DHT22;12055;52.098;13.176;2022-08-19T06:48:41;23.70;99.90
23751;DHT22;12055;52.098;13.176;2022-08-19T06:51:07;23.70;99.90
23751;DHT22;12055;52.098;13.176;2022-08-19T06:53:33;23.70;99.90
23751;DHT22;12055;52.098;13.176;2022-08-19T06:55:59;23.60;99.90
23751;DHT22;12055;52.098;13.176;2022-08-19T06:58:30;23.80;99.90
23751;DHT22;12055;52.098;13.176;2022-08-19T07:01:01;23.70;99.90
23751;DHT22;12055;52.098;13.176;2022-08-19T07:03:30;23.60;99.90
23751;DHT22;12055;52.098;13.176;2022-08-19T07:05:57;23.40;99.90
23751;DHT22;12055;52.098;13.176;2022-08-19T07:08:22;23.40;99.90
23751;DHT22;12055;52.098;13.176;2022-08-19T07:10:50;23.30;99.90
23751;DHT22;12055;52.098;13.176;2022-08-19T07:13:16;23.40;99.90
23751;DHT22;12055;52.098;13.176;2022-08-19T07:15:41;23.30;99.90
23751;DHT22;12055;52.098;13.176;2022-08-19T07:18:07;23.20;99.90
23751;DHT22;12055;52.098;13.176;2022-08-19T07:20:32;23.10;99.90
23751;DHT22;12055;52.098;13.176;2022-08-19T07:22:58;23.10;99.90
23751;DHT22;12055;52.098;13.176;2022-08-19T07:25:23;23.00;99.90
23751;DHT22;12055;52.098;13.176;2022-08-19T07:27:49;23.00;99.90
23751;DHT22;12055;52.098;13.176;2022-08-19T07:30:16;23.10;99.90
23751;DHT22;12055;52.098;13.176;2022-08-19T07:32:42;23.20;99.90
23751;DHT22;12055;52.098;13.176;2022-08-19T07:35:08;23.20;99.90
23751;DHT22;12055;52.098;13.176;2022-08-19T07:37:34;23.00;99.90
23751;DHT22;12055;52.098;13.176;2022-08-19T07:40:04;23.00;99.90
23751;DHT22;12055;52.098;13.176;2022-08-19T07:42:30;23.00;99.90
23751;DHT22;12055;52.098;13.176;2022-08-19T07:44:56;23.10;99.90
23751;DHT22;12055;52.098;13.176;2022-08-19T07:47:21;23.10;99.90
23751;DHT22;12055;52.098;13.176;2022-08-19T07:49:46;23.00;99.90
23751;DHT22;12055;52.098;13.176;2022-08-19T07:52:12;22.90;99.90
23751;DHT22;12055;52.098;13.176;2022-08-19T07:54:39;23.00;99.90
23751;DHT22;12055;52.098;13.176;2022-08-19T07:57:06;23.00;99.90
23751;DHT22;12055;52.098;13.176;2022-08-19T07:59:32;22.90;99.90
23751;DHT22;12055;52.098;13.176;2022-08-19T08:01:57;23.00;99.90
23751;DHT22;12055;52.098;13.176;2022-08-19T08:04:25;23.00;99.90
23751;DHT22;12055;52.098;13.176;2022-08-19T08:07:09;22.90;99.90
23751;DHT22;12055;52.098;13.176;2022-08-19T08:09:54;22.90;99.90
23751;DHT22;12055;52.098;13.176;2022-08-19T08:12:22;22.90;99.90
23751;DHT22;12055;52.098;13.176;2022-08-19T08:14:52;23.00;99.90
23751;DHT22;12055;52.098;13.176;2022-08-19T08:17:20;22.90;99.90
23751;DHT22;12055;52.098;13.176;2022-08-19T08:19:46;22.90;99.90
23751;DHT22;12055;52.098;13.176;2022-08-19T08:22:15;23.00;99.90
23751;DHT22;12055;52.098;13.176;2022-08-19T08:25:04;23.20;99.90
23751;DHT22;12055;52.098;13.176;2022-08-19T08:27:30;23.20;99.90
23751;DHT22;12055;52.098;13.176;2022-08-19T08:29:57;23.20;99.90
23751;DHT22;12055;52.098;13.176;2022-08-19T08:32:23;23.20;99.90
23751;DHT22;12055;52.098;13.176;2022-08-19T08:34:48;23.20;99.90
23751;DHT22;12055;52.098;13.176;2022-08-19T08:37:14;23.20;99.90
23751;DHT22;12055;52.098;13.176;2022-08-19T08:39:39;23.00;99.90
23751;DHT22;12055;52.098;13.176;2022-08-19T08:42:21;23.10;99.90
23751;DHT22;12055;52.098;13.176;2022-08-19T08:45:00;23.00;99.90
23751;DHT22;12055;52.098;13.176;2022-08-19T08:47:31;23.00;99.90
23751;DHT22;12055;52.098;13.176;2022-08-19T08:50:05;23.10;99.90
23751;DHT22;12055;52.098;13.176;2022-08-19T08:52:39;23.00;99.90
23751;DHT22;12055;52.098;13.176;2022-08-19T08:55:11;23.10;99.90
23751;DHT22;12055;52.098;13.176;2022-08-19T09:00:25;23.00;99.90
23751;DHT22;12055;52.098;13.176;2022-08-19T09:02:52;22.90;99.90
23751;DHT22;12055;52.098;13.176;2022-08-19T09:05:19;22.90;99.90
23751;DHT22;12055;52.098;13.176;2022-08-19T09:08:00;23.00;99.90
23751;DHT22;12055;52.098;13.176;2022-08-19T09:16:07;23.20;99.90
23751;DHT22;12055;52.098;13.176;2022-08-19T09:18:46;23.30;99.90
23751;DHT22;12055;52.098;13.176;2022-08-19T09:21:13;23.40;99.90
23751;DHT22;12055;52.098;13.176;2022-08-19T09:23:39;23.50;99.90
23751;DHT22;12055;52.098;13.176;2022-08-19T09:26:15;23.70;99.90
23751;DHT22;12055;52.098;13.176;2022-08-19T09:28:42;23.90;99.90
23751;DHT22;12055;52.098;13.176;2022-08-19T09:31:14;24.30;99.90
23751;DHT22;12055;52.098;13.176;2022-08-19T09:33:39;24.70;99.90
23751;DHT22;12055;52.098;13.176;2022-08-19T09:36:10;24.90;99.90
23751;DHT22;12055;52.098;13.176;2022-08-19T09:38:37;24.80;99.90
23751;DHT22;12055;52.098;13.176;2022-08-19T09:41:08;24.60;99.90
23751;DHT22;12055;52.098;13.176;2022-08-19T09:43:34;24.40;99.90
23751;DHT22;12055;52.098;13.176;2022-08-19T09:46:04;24.40;99.90
23751;DHT22;12055;52.098;13.176;2022-08-19T09:48:35;24.20;99.90
23751;DHT22;12055;52.098;13.176;2022-08-19T09:51:06;24.00;99.90
23751;DHT22;12055;52.098;13.176;2022-08-19T09:53:33;23.90;99.90
23751;DHT22;12055;52.098;13.176;2022-08-19T09:55:59;23.90;99.90
23751;DHT22;12055;52.098;13.176;2022-08-19T09:58:25;23.80;99.90
23751;DHT22;12055;52.098;13.176;2022-08-19T10:00:54;23.70;99.90
23751;DHT22;12055;52.098;13.176;2022-08-19T10:03:19;23.70;99.90
23751;DHT22;12055;52.098;13.176;2022-08-19T10:05:45;23.60;99.90
23751;DHT22;12055;52.098;13.176;2022-08-19T10:08:13;23.60;99.90
23751;DHT22;12055;52.098;13.176;2022-08-19T10:10:41;23.60;99.90
23751;DHT22;12055;52.098;13.176;2022-08-19T10:13:09;23.50;99.90
23751;DHT22;12055;52.098;13.176;2022-08-19T10:15:34;23.20;99.90
23751;DHT22;12055;52.098;13.176;2022-08-19T10:18:00;23.10;99.90
23751;DHT22;12055;52.098;13.176;2022-08-19T10:20:26;23.00;99.90
23751;DHT22;12055;52.098;13.176;2022-08-19T10:22:51;22.80;99.90
23751;DHT22;12055;52.098;13.176;2022-08-19T10:25:17;22.70;99.90
23751;DHT22;12055;52.098;13.176;2022-08-19T10:27:42;22.70;99.90
23751;DHT22;12055;52.098;13.176;2022-08-19T10:30:09;22.50;99.90
23751;DHT22;12055;52.098;13.176;2022-08-19T10:32:34;22.50;99.90
23751;DHT22;12055;52.098;13.176;2022-08-19T10:35:01;22.50;99.90
23751;DHT22;12055;52.098;13.176;2022-08-19T10:37:26;22.50;99.90
23751;DHT22;12055;52.098;13.176;2022-08-19T10:39:51;22.40;99.90
23751;DHT22;12055;52.098;13.176;2022-08-19T10:42:17;22.30;99.90
23751;DHT22;12055;52.098;13.176;2022-08-19T10:44:44;22.30;99.90
23751;DHT22;12055;52.098;13.176;2022-08-19T10:47:10;22.30;99.90
23751;DHT22;12055;52.098;13.176;2022-08-19T10:49:35;22.30;99.90
23751;DHT22;12055;52.098;13.176;2022-08-19T10:52:21;22.20;99.90
23751;DHT22;12055;52.098;13.176;2022-08-19T10:54:59;22.10;99.90
23751;DHT22;12055;52.098;13.176;2022-08-19T10:57:43;22.00;99.90
23751;DHT22;12055;52.098;13.176;2022-08-19T11:00:09;22.10;99.90
23751;DHT22;12055;52.098;13.176;2022-08-19T11:02:35;22.00;99.90
23751;DHT22;12055;52.098;13.176;2022-08-19T11:05:00;21.80;99.90
23751;DHT22;12055;52.098;13.176;2022-08-19T11:07:26;21.80;99.90
23751;DHT22;12055;52.098;13.176;2022-08-19T11:09:51;21.70;99.90
23751;DHT22;12055;52.098;13.176;2022-08-19T11:12:17;21.70;99.90
23751;DHT22;12055;52.098;13.176;2022-08-19T11:14:42;21.70;99.90
23751;DHT22;12055;52.098;13.176;2022-08-19T11:17:08;21.70;99.90
23751;DHT22;12055;52.098;13.176;2022-08-19T11:19:34;21.60;99.90
23751;DHT22;12055;52.098;13.176;2022-08-19T11:22:00;21.70;99.90
23751;DHT22;12055;52.098;13.176;2022-08-19T11:24:27;21.60;99.90
23751;DHT22;12055;52.098;13.176;2022-08-19T11:26:55;21.60;99.90
23751;DHT22;12055;52.098;13.176;2022-08-19T11:29:25;21.60;99.90
23751;DHT22;12055;52.098;13.176;2022-08-19T11:31:52;21.50;99.90
23751;DHT22;12055;52.098;13.176;2022-08-19T11:34:21;21.50;99.90
23751;DHT22;12055;52.098;13.176;2022-08-19T11:36:48;21.50;99.90
23751;DHT22;12055;52.098;13.176;2022-08-19T11:39:18;21.60;99.90
23751;DHT22;12055;52.098;13.176;2022-08-19T11:41:44;21.60;99.90
23751;DHT22;12055;52.098;13.176;2022-08-19T11:44:10;21.60;99.90
23751;DHT22;12055;52.098;13.176;2022-08-19T11:46:37;21.50;99.90
23751;DHT22;12055;52.098;13.176;2022-08-19T11:49:04;21.40;99.90
23751;DHT22;12055;52.098;13.176;2022-08-19T11:51:30;21.40;99.90
23751;DHT22;12055;52.098;13.176;2022-08-19T11:53:57;21.40;99.90
23751;DHT22;12055;52.098;13.176;2022-08-19T11:56:24;21.40;99.90
23751;DHT22;12055;52.098;13.176;2022-08-19T11:58:50;21.40;99.90
23751;DHT22;12055;52.098;13.176;2022-08-19T12:01:19;21.50;99.90
23751;DHT22;12055;52.098;13.176;2022-08-19T12:03:47;21.60;99.90
23751;DHT22;12055;52.098;13.176;2022-08-19T12:06:19;21.60;99.90
23751;DHT22;12055;52.098;13.176;2022-08-19T12:08:45;21.60;99.90
23751;DHT22;12055;52.098;13.176;2022-08-19T12:11:13;21.60;99.90
23751;DHT22;12055;52.098;13.176;2022-08-19T12:13:39;21.60;99.90
23751;DHT22;12055;52.098;13.176;2022-08-19T12:16:10;21.60;99.90
23751;DHT22;12055;52.098;13.176;2022-08-19T12:18:38;21.70;99.90
23751;DHT22;12055;52.098;13.176;2022-08-19T12:21:04;21.70;99.90
23751;DHT22;12055;52.098;13.176;2022-08-19T12:23:29;21.70;99.90
23751;DHT22;12055;52.098;13.176;2022-08-19T12:25:55;21.70;99.90
23751;DHT22;12055;52.098;13.176;2022-08-19T12:28:24;21.60;99.90
23751;DHT22;12055;52.098;13.176;2022-08-19T12:30:50;21.70;99.90
23751;DHT22;12055;52.098;13.176;2022-08-19T12:33:17;21.60;99.90
23751;DHT22;12055;52.098;13.176;2022-08-19T12:35:44;21.50;99.90
23751;DHT22;12055;52.098;13.176;2022-08-19T12:38:12;21.40;99.90
23751;DHT22;12055;52.098;13.176;2022-08-19T12:40:38;21.40;99.90
23751;DHT22;12055;52.098;13.176;2022-08-19T12:43:06;21.40;99.90
23751;DHT22;12055;52.098;13.176;2022-08-19T12:45:31;21.40;99.90
23751;DHT22;12055;52.098;13.176;2022-08-19T12:47:56;21.40;99.90
23751;DHT22;12055;52.098;13.176;2022-08-19T12:50:22;21.20;99.90
23751;DHT22;12055;52.098;13.176;2022-08-19T12:52:48;21.20;99.90
23751;DHT22;12055;52.098;13.176;2022-08-19T12:55:13;21.10;99.90
23751;DHT22;12055;52.098;13.176;2022-08-19T12:57:40;21.10;99.90
23751;DHT22;12055;52.098;13.176;2022-08-19T13:00:08;21.10;99.90
23751;DHT22;12055;52.098;13.176;2022-08-19T13:02:37;21.10;99.90
23751;DHT22;12055;52.098;13.176;2022-08-19T13:05:04;21.10;99.90
23751;DHT22;12055;52.098;13.176;2022-08-19T13:07:32;21.20;99.90
23751;DHT22;12055;52.098;13.176;2022-08-19T13:09:57;21.20;99.90
23751;DHT22;12055;52.098;13.176;2022-08-19T13:12:23;21.40;99.90
23751;DHT22;12055;52.098;13.176;2022-08-19T13:14:52;21.40;99.90
23751;DHT22;12055;52.098;13.176;2022-08-19T13:17:19;21.60;99.90
23751;DHT22;12055;52.098;13.176;2022-08-19T13:19:44;21.70;99.90
23751;DHT22;12055;52.098;13.176;2022-08-19T13:22:10;21.80;99.90
23751;DHT22;12055;52.098;13.176;2022-08-19T13:24:37;22.00;99.90
23751;DHT22;12055;52.098;13.176;2022-08-19T13:27:03;22.20;99.90
23751;DHT22;12055;52.098;13.176;2022-08-19T13:29:29;22.20;99.90
23751;DHT22;12055;52.098;13.176;2022-08-19T13:32:12;22.20;99.90
23751;DHT22;12055;52.098;13.176;2022-08-19T13:34:56;22.30;99.90
23751;DHT22;12055;52.098;13.176;2022-08-19T13:37:22;22.30;99.90
23751;DHT22;12055;52.098;13.176;2022-08-19T13:40:07;22.30;99.90
23751;DHT22;12055;52.098;13.176;2022-08-19T13:42:41;22.30;99.90
23751;DHT22;12055;52.098;13.176;2022-08-19T13:45:07;22.30;99.90
23751;DHT22;12055;52.098;13.176;2022-08-19T13:47:34;22.30;99.90
23751;DHT22;12055;52.098;13.176;2022-08-19T13:50:03;22.30;99.90
23751;DHT22;12055;52.098;13.176;2022-08-19T13:52:29;22.30;99.90
23751;DHT22;12055;52.098;13.176;2022-08-19T13:54:54;22.40;99.90
23751;DHT22;12055;52.098;13.176;2022-08-19T13:57:20;22.50;99.90
23751;DHT22;12055;52.098;13.176;2022-08-19T13:59:45;22.60;99.90
23751;DHT22;12055;52.098;13.176;2022-08-19T14:02:11;22.80;99.90
23751;DHT22;12055;52.098;13.176;2022-08-19T14:04:37;22.80;99.90
23751;DHT22;12055;52.098;13.176;2022-08-19T14:07:03;22.90;99.90
23751;DHT22;12055;52.098;13.176;2022-08-19T14:09:29;22.90;99.90
23751;DHT22;12055;52.098;13.176;2022-08-19T14:11:55;22.90;99.90
23751;DHT22;12055;52.098;13.176;2022-08-19T14:14:20;22.90;99.90
23751;DHT22;12055;52.098;13.176;2022-08-19T14:16:46;22.80;99.90
23751;DHT22;12055;52.098;13.176;2022-08-19T14:19:12;22.80;99.90
23751;DHT22;12055;52.098;13.176;2022-08-19T14:21:37;22.80;99.90
23751;DHT22;12055;52.098;13.176;2022-08-19T14:24:04;22.80;99.90
23751;DHT22;12055;52.098;13.176;2022-08-19T14:26:30;22.80;99.90
23751;DHT22;12055;52.098;13.176;2022-08-19T14:28:56;22.90;99.90
23751;DHT22;12055;52.098;13.176;2022-08-19T14:31:22;22.80;99.90
23751;DHT22;12055;52.098;13.176;2022-08-19T14:33:49;22.80;99.90
23751;DHT22;12055;52.098;13.176;2022-08-19T14:36:16;22.80;99.90
23751;DHT22;12055;52.098;13.176;2022-08-19T14:38:42;22.80;99.90
23751;DHT22;12055;52.098;13.176;2022-08-19T14:41:10;22.70;99.90
23751;DHT22;12055;52.098;13.176;2022-08-19T14:43:37;22.60;99.90
23751;DHT22;12055;52.098;13.176;2022-08-19T14:46:03;22.60;99.90
23751;DHT22;12055;52.098;13.176;2022-08-19T14:48:29;22.50;99.90
23751;DHT22;12055;52.098;13.176;2022-08-19T14:50:55;22.30;99.90
23751;DHT22;12055;52.098;13.176;2022-08-19T14:53:20;22.20;99.90
23751;DHT22;12055;52.098;13.176;2022-08-19T14:55:46;22.30;99.90
23751;DHT22;12055;52.098;13.176;2022-08-19T14:58:12;22.20;99.90
23751;DHT22;12055;52.098;13.176;2022-08-19T15:00:38;22.20;99.90
23751;DHT22;12055;52.098;13.176;2022-08-19T15:03:04;22.10;99.90
23751;DHT22;12055;52.098;13.176;2022-08-19T15:05:29;22.10;99.90
23751;DHT22;12055;52.098;13.176;2022-08-19T15:07:55;22.00;99.90
23751;DHT22;12055;52.098;13.176;2022-08-19T15:10:22;22.00;99.90
23751;DHT22;12055;52.098;13.176;2022-08-19T15:12:48;22.10;99.90
23751;DHT22;12055;52.098;13.176;2022-08-19T15:15:15;22.10;99.90
23751;DHT22;12055;52.098;13.176;2022-08-19T15:17:43;22.10;99.90
23751;DHT22;12055;52.098;13.176;2022-08-19T15:20:10;22.10;99.90
23751;DHT22;12055;52.098;13.176;2022-08-19T15:22:36;22.00;99.90
23751;DHT22;12055;52.098;13.176;2022-08-19T15:25:04;22.00;99.90
23751;DHT22;12055;52.098;13.176;2022-08-19T15:27:29;22.00;99.90
23751;DHT22;12055;52.098;13.176;2022-08-19T15:29:55;21.90;99.90